sensor_id;sensor_type;location;lat;lon;timestamp;temperature;humidity
16305;DHT22;8261;47.678;-122.174;2023-06-05T00:01:25;24.70;71.60
16305;DHT22;8261;47.678;-122.174;2023-06-05T00:03:59;24.40;73.10
16305;DHT22;8261;47.678;-122.174;2023-06-05T00:06:34;24.40;71.20
16305;DHT22;8261;47.678;-122.174;2023-06-05T00:09:06;24.30;71.60
16305;DHT22;8261;47.678;-122.174;2023-06-05T00:11:37;24.10;69.90
16305;DHT22;8261;47.678;-122.174;2023-06-05T00:14:10;24.20;71.50
16305;DHT22;8261;47.678;-122.174;2023-06-05T00:16:46;24.20;70.10
16305;DHT22;8261;47.678;-122.174;2023-06-05T00:19:20;23.80;69.50
16305;DHT22;8261;47.678;-122.174;2023-06-05T00:21:54;23.60;68.80
16305;DHT22;8261;47.678;-122.174;2023-06-05T00:24:26;23.70;70.30
16305;DHT22;8261;47.678;-122.174;2023-06-05T00:26:58;23.70;68.70
16305;DHT22;8261;47.678;-122.174;2023-06-05T00:29:29;23.60;67.10
16305;DHT22;8261;47.678;-122.174;2023-06-05T00:32:01;23.40;67.80
16305;DHT22;8261;47.678;-122.174;2023-06-05T00:34:33;23.30;67.30
16305;DHT22;8261;47.678;-122.174;2023-06-05T00:37:17;23.20;69.90
16305;DHT22;8261;47.678;-122.174;2023-06-05T00:39:53;23.10;69.30
16305;DHT22;8261;47.678;-122.174;2023-06-05T00:42:27;23.00;68.20
16305;DHT22;8261;47.678;-122.174;2023-06-05T00:45:14;22.60;69.20
16305;DHT22;8261;47.678;-122.174;2023-06-05T00:47:46;22.40;69.00
16305;DHT22;8261;47.678;-122.174;2023-06-05T00:50:34;22.60;69.50
16305;DHT22;8261;47.678;-122.174;2023-06-05T00:53:09;23.20;70.80
16305;DHT22;8261;47.678;-122.174;2023-06-05T00:55:41;23.60;69.60
16305;DHT22;8261;47.678;-122.174;2023-06-05T00:58:14;24.00;68.60
16305;DHT22;8261;47.678;-122.174;2023-06-05T01:00:47;24.20;67.60
16305;DHT22;8261;47.678;-122.174;2023-06-05T01:03:47;23.90;67.50
16305;DHT22;8261;47.678;-122.174;2023-06-05T01:06:20;23.90;67.50
16305;DHT22;8261;47.678;-122.174;2023-06-05T01:08:55;23.80;67.90
16305;DHT22;8261;47.678;-122.174;2023-06-05T01:11:35;23.80;68.90
16305;DHT22;8261;47.678;-122.174;2023-06-05T01:14:15;24.10;66.50
16305;DHT22;8261;47.678;-122.174;2023-06-05T01:16:54;23.80;67.70
16305;DHT22;8261;47.678;-122.174;2023-06-05T01:19:26;24.20;67.00
16305;DHT22;8261;47.678;-122.174;2023-06-05T01:22:01;24.30;68.00
16305;DHT22;8261;47.678;-122.174;2023-06-05T01:24:56;24.50;67.30
16305;DHT22;8261;47.678;-122.174;2023-06-05T01:27:37;24.20;67.10
16305;DHT22;8261;47.678;-122.174;2023-06-05T01:30:22;24.20;67.80
16305;DHT22;8261;47.678;-122.174;2023-06-05T01:33:01;24.00;66.70
16305;DHT22;8261;47.678;-122.174;2023-06-05T01:36:11;24.40;68.10
16305;DHT22;8261;47.678;-122.174;2023-06-05T01:39:01;24.50;67.70
16305;DHT22;8261;47.678;-122.174;2023-06-05T01:41:36;24.40;67.30
16305;DHT22;8261;47.678;-122.174;2023-06-05T01:44:08;24.70;65.60
16305;DHT22;8261;47.678;-122.174;2023-06-05T01:46:43;24.40;65.60
16305;DHT22;8261;47.678;-122.174;2023-06-05T01:49:30;24.50;66.10
16305;DHT22;8261;47.678;-122.174;2023-06-05T01:52:03;24.40;66.10
16305;DHT22;8261;47.678;-122.174;2023-06-05T01:54:35;24.10;66.10
16305;DHT22;8261;47.678;-122.174;2023-06-05T01:57:10;24.30;66.50
16305;DHT22;8261;47.678;-122.174;2023-06-05T01:59:42;24.00;66.10
16305;DHT22;8261;47.678;-122.174;2023-06-05T02:02:14;23.50;66.50
16305;DHT22;8261;47.678;-122.174;2023-06-05T02:04:48;22.90;67.40
16305;DHT22;8261;47.678;-122.174;2023-06-05T02:07:23;22.00;67.30
16305;DHT22;8261;47.678;-122.174;2023-06-05T02:09:56;21.40;68.30
16305;DHT22;8261;47.678;-122.174;2023-06-05T02:12:34;21.10;68.80
16305;DHT22;8261;47.678;-122.174;2023-06-05T02:15:07;20.70;70.10
16305;DHT22;8261;47.678;-122.174;2023-06-05T02:17:43;20.60;71.20
16305;DHT22;8261;47.678;-122.174;2023-06-05T02:20:20;20.40;72.80
16305;DHT22;8261;47.678;-122.174;2023-06-05T02:22:53;20.20;72.50
16305;DHT22;8261;47.678;-122.174;2023-06-05T02:25:25;20.00;72.70
16305;DHT22;8261;47.678;-122.174;2023-06-05T02:27:59;19.90;73.80
16305;DHT22;8261;47.678;-122.174;2023-06-05T02:30:31;19.80;73.90
16305;DHT22;8261;47.678;-122.174;2023-06-05T02:33:03;19.50;74.80
16305;DHT22;8261;47.678;-122.174;2023-06-05T02:35:35;19.20;74.70
16305;DHT22;8261;47.678;-122.174;2023-06-05T02:38:09;18.90;74.60
16305;DHT22;8261;47.678;-122.174;2023-06-05T02:40:41;18.60;74.40
16305;DHT22;8261;47.678;-122.174;2023-06-05T02:43:15;18.40;74.70
16305;DHT22;8261;47.678;-122.174;2023-06-05T02:45:48;18.30;75.60
16305;DHT22;8261;47.678;-122.174;2023-06-05T02:48:20;18.20;76.30
16305;DHT22;8261;47.678;-122.174;2023-06-05T02:50:53;18.00;76.30
16305;DHT22;8261;47.678;-122.174;2023-06-05T02:53:29;17.90;76.30
16305;DHT22;8261;47.678;-122.174;2023-06-05T02:56:03;17.70;77.50
16305;DHT22;8261;47.678;-122.174;2023-06-05T02:58:40;17.60;77.60
16305;DHT22;8261;47.678;-122.174;2023-06-05T03:01:14;17.50;78.20
16305;DHT22;8261;47.678;-122.174;2023-06-05T03:03:49;17.40;78.40
16305;DHT22;8261;47.678;-122.174;2023-06-05T03:06:35;17.30;79.40
16305;DHT22;8261;47.678;-122.174;2023-06-05T03:09:09;17.20;79.40
16305;DHT22;8261;47.678;-122.174;2023-06-05T03:11:45;17.10;80.20
16305;DHT22;8261;47.678;-122.174;2023-06-05T03:14:24;17.00;81.30
16305;DHT22;8261;47.678;-122.174;2023-06-05T03:16:57;16.90;81.70
16305;DHT22;8261;47.678;-122.174;2023-06-05T03:19:30;16.80;82.50
16305;DHT22;8261;47.678;-122.174;2023-06-05T03:22:01;16.70;82.90
16305;DHT22;8261;47.678;-122.174;2023-06-05T03:24:35;16.60;84.40
16305;DHT22;8261;47.678;-122.174;2023-06-05T03:27:11;16.50;85.30
16305;DHT22;8261;47.678;-122.174;2023-06-05T03:29:48;16.40;97.90
16305;DHT22;8261;47.678;-122.174;2023-06-05T03:32:21;16.10;97.20
16305;DHT22;8261;47.678;-122.174;2023-06-05T03:34:53;16.00;94.00
16305;DHT22;8261;47.678;-122.174;2023-06-05T03:37:42;15.90;95.40
16305;DHT22;8261;47.678;-122.174;2023-06-05T03:40:15;15.80;93.10
16305;DHT22;8261;47.678;-122.174;2023-06-05T03:42:47;15.70;93.00
16305;DHT22;8261;47.678;-122.174;2023-06-05T03:45:22;15.70;93.20
16305;DHT22;8261;47.678;-122.174;2023-06-05T03:47:57;15.50;93.10
16305;DHT22;8261;47.678;-122.174;2023-06-05T03:50:30;15.40;93.10
16305;DHT22;8261;47.678;-122.174;2023-06-05T03:53:19;15.40;93.60
16305;DHT22;8261;47.678;-122.174;2023-06-05T03:55:51;15.30;93.60
16305;DHT22;8261;47.678;-122.174;2023-06-05T03:58:24;15.20;93.20
16305;DHT22;8261;47.678;-122.174;2023-06-05T04:00:57;15.20;94.20
16305;DHT22;8261;47.678;-122.174;2023-06-05T04:03:29;15.00;94.10
16305;DHT22;8261;47.678;-122.174;2023-06-05T04:06:06;15.00;94.30
16305;DHT22;8261;47.678;-122.174;2023-06-05T04:08:41;15.00;94.10
16305;DHT22;8261;47.678;-122.174;2023-06-05T04:11:13;14.90;95.40
16305;DHT22;8261;47.678;-122.174;2023-06-05T04:13:45;14.80;95.20
16305;DHT22;8261;47.678;-122.174;2023-06-05T04:16:22;14.80;95.00
16305;DHT22;8261;47.678;-122.174;2023-06-05T04:19:04;14.70;95.10
16305;DHT22;8261;47.678;-122.174;2023-06-05T04:21:40;14.60;96.00
16305;DHT22;8261;47.678;-122.174;2023-06-05T04:24:14;14.60;96.40
16305;DHT22;8261;47.678;-122.174;2023-06-05T04:26:50;14.50;96.30
16305;DHT22;8261;47.678;-122.174;2023-06-05T04:29:22;14.40;96.70
16305;DHT22;8261;47.678;-122.174;2023-06-05T04:31:56;14.40;96.50
16305;DHT22;8261;47.678;-122.174;2023-06-05T04:34:28;14.20;97.70
16305;DHT22;8261;47.678;-122.174;2023-06-05T04:37:04;14.20;98.30
16305;DHT22;8261;47.678;-122.174;2023-06-05T04:42:16;14.10;99.10
16305;DHT22;8261;47.678;-122.174;2023-06-05T04:44:56;14.00;99.90
16305;DHT22;8261;47.678;-122.174;2023-06-05T04:47:34;13.90;99.90
16305;DHT22;8261;47.678;-122.174;2023-06-05T04:50:07;13.90;99.90
16305;DHT22;8261;47.678;-122.174;2023-06-05T04:52:40;13.90;99.90
16305;DHT22;8261;47.678;-122.174;2023-06-05T04:55:12;13.80;99.90
16305;DHT22;8261;47.678;-122.174;2023-06-05T04:57:44;13.70;99.90
16305;DHT22;8261;47.678;-122.174;2023-06-05T05:00:20;13.60;99.90
16305;DHT22;8261;47.678;-122.174;2023-06-05T05:02:55;13.60;99.90
16305;DHT22;8261;47.678;-122.174;2023-06-05T05:05:28;13.50;99.90
16305;DHT22;8261;47.678;-122.174;2023-06-05T05:08:01;13.40;99.90
16305;DHT22;8261;47.678;-122.174;2023-06-05T05:10:36;13.40;99.90
16305;DHT22;8261;47.678;-122.174;2023-06-05T05:13:08;13.40;99.90
16305;DHT22;8261;47.678;-122.174;2023-06-05T05:15:41;13.30;99.90
16305;DHT22;8261;47.678;-122.174;2023-06-05T05:18:17;13.20;99.90
16305;DHT22;8261;47.678;-122.174;2023-06-05T05:20:56;13.20;99.90
16305;DHT22;8261;47.678;-122.174;2023-06-05T05:23:36;13.10;99.90
16305;DHT22;8261;47.678;-122.174;2023-06-05T05:26:10;13.10;99.90
16305;DHT22;8261;47.678;-122.174;2023-06-05T05:28:43;13.00;99.90
16305;DHT22;8261;47.678;-122.174;2023-06-05T05:31:15;13.00;99.90
16305;DHT22;8261;47.678;-122.174;2023-06-05T05:33:50;12.80;99.90
16305;DHT22;8261;47.678;-122.174;2023-06-05T05:36:23;12.80;99.90
16305;DHT22;8261;47.678;-122.174;2023-06-05T05:38:55;12.80;99.90
16305;DHT22;8261;47.678;-122.174;2023-06-05T05:41:28;12.70;99.90
16305;DHT22;8261;47.678;-122.174;2023-06-05T05:44:00;12.60;99.90
16305;DHT22;8261;47.678;-122.174;2023-06-05T05:46:33;12.60;99.90
16305;DHT22;8261;47.678;-122.174;2023-06-05T05:49:08;12.60;99.90
16305;DHT22;8261;47.678;-122.174;2023-06-05T05:51:40;12.60;99.90
16305;DHT22;8261;47.678;-122.174;2023-06-05T05:54:12;12.50;99.90
16305;DHT22;8261;47.678;-122.174;2023-06-05T05:56:45;12.40;99.90
16305;DHT22;8261;47.678;-122.174;2023-06-05T05:59:17;12.40;99.90
16305;DHT22;8261;47.678;-122.174;2023-06-05T06:01:49;12.40;99.90
16305;DHT22;8261;47.678;-122.174;2023-06-05T06:04:25;12.30;99.90
16305;DHT22;8261;47.678;-122.174;2023-06-05T06:06:59;12.30;99.90
16305;DHT22;8261;47.678;-122.174;2023-06-05T06:09:33;12.20;99.90
16305;DHT22;8261;47.678;-122.174;2023-06-05T06:12:05;12.10;99.90
16305;DHT22;8261;47.678;-122.174;2023-06-05T06:14:38;12.10;99.90
16305;DHT22;8261;47.678;-122.174;2023-06-05T06:17:10;12.10;99.90
16305;DHT22;8261;47.678;-122.174;2023-06-05T06:19:44;12.00;99.90
16305;DHT22;8261;47.678;-122.174;2023-06-05T06:22:18;11.90;99.90
16305;DHT22;8261;47.678;-122.174;2023-06-05T06:24:49;11.90;99.90
16305;DHT22;8261;47.678;-122.174;2023-06-05T06:27:21;11.90;99.90
16305;DHT22;8261;47.678;-122.174;2023-06-05T06:30:03;11.80;99.90
16305;DHT22;8261;47.678;-122.174;2023-06-05T06:32:38;11.80;99.90
16305;DHT22;8261;47.678;-122.174;2023-06-05T06:35:17;11.70;99.90
16305;DHT22;8261;47.678;-122.174;2023-06-05T06:37:52;11.60;99.90
16305;DHT22;8261;47.678;-122.174;2023-06-05T06:40:25;11.60;99.90
16305;DHT22;8261;47.678;-122.174;2023-06-05T06:42:58;11.50;99.90
16305;DHT22;8261;47.678;-122.174;2023-06-05T06:45:30;11.60;99.90
16305;DHT22;8261;47.678;-122.174;2023-06-05T06:48:04;11.50;99.90
16305;DHT22;8261;47.678;-122.174;2023-06-05T06:50:39;11.50;99.90
16305;DHT22;8261;47.678;-122.174;2023-06-05T06:53:12;11.50;99.90
16305;DHT22;8261;47.678;-122.174;2023-06-05T06:55:44;11.40;99.90
16305;DHT22;8261;47.678;-122.174;2023-06-05T06:58:19;11.30;99.90
16305;DHT22;8261;47.678;-122.174;2023-06-05T07:00:51;11.30;99.90
16305;DHT22;8261;47.678;-122.174;2023-06-05T07:03:26;11.30;99.90
16305;DHT22;8261;47.678;-122.174;2023-06-05T07:06:01;11.30;99.90
16305;DHT22;8261;47.678;-122.174;2023-06-05T07:08:32;11.30;99.90
16305;DHT22;8261;47.678;-122.174;2023-06-05T07:11:05;11.30;99.90
16305;DHT22;8261;47.678;-122.174;2023-06-05T07:13:37;11.20;99.90
16305;DHT22;8261;47.678;-122.174;2023-06-05T07:16:09;11.20;99.90
16305;DHT22;8261;47.678;-122.174;2023-06-05T07:18:42;11.20;99.90
16305;DHT22;8261;47.678;-122.174;2023-06-05T07:21:16;11.10;99.90
16305;DHT22;8261;47.678;-122.174;2023-06-05T07:23:49;11.00;99.90
16305;DHT22;8261;47.678;-122.174;2023-06-05T07:26:22;11.10;99.90
16305;DHT22;8261;47.678;-122.174;2023-06-05T07:28:57;11.10;99.90
16305;DHT22;8261;47.678;-122.174;2023-06-05T07:31:29;11.00;99.90
16305;DHT22;8261;47.678;-122.174;2023-06-05T07:34:00;10.90;99.90
16305;DHT22;8261;47.678;-122.174;2023-06-05T07:36:39;10.90;99.90
16305;DHT22;8261;47.678;-122.174;2023-06-05T07:39:11;10.90;99.90
16305;DHT22;8261;47.678;-122.174;2023-06-05T07:41:44;11.00;99.90
16305;DHT22;8261;47.678;-122.174;2023-06-05T07:44:17;10.90;99.90
16305;DHT22;8261;47.678;-122.174;2023-06-05T07:46:50;10.80;99.90
16305;DHT22;8261;47.678;-122.174;2023-06-05T07:49:23;10.80;99.90
16305;DHT22;8261;47.678;-122.174;2023-06-05T07:51:58;10.80;99.90
16305;DHT22;8261;47.678;-122.174;2023-06-05T07:54:32;10.70;99.90
16305;DHT22;8261;47.678;-122.174;2023-06-05T07:57:06;10.70;99.90
16305;DHT22;8261;47.678;-122.174;2023-06-05T07:59:43;10.60;99.90
16305;DHT22;8261;47.678;-122.174;2023-06-05T08:02:16;10.60;99.90
16305;DHT22;8261;47.678;-122.174;2023-06-05T08:04:49;10.60;99.90
16305;DHT22;8261;47.678;-122.174;2023-06-05T08:07:26;10.60;99.90
16305;DHT22;8261;47.678;-122.174;2023-06-05T08:09:57;10.50;99.90
16305;DHT22;8261;47.678;-122.174;2023-06-05T08:12:30;10.50;99.90
16305;DHT22;8261;47.678;-122.174;2023-06-05T08:15:04;10.50;99.90
16305;DHT22;8261;47.678;-122.174;2023-06-05T08:17:38;10.50;99.90
16305;DHT22;8261;47.678;-122.174;2023-06-05T08:20:11;10.50;99.90
16305;DHT22;8261;47.678;-122.174;2023-06-05T08:22:45;10.50;99.90
16305;DHT22;8261;47.678;-122.174;2023-06-05T08:25:17;10.50;99.90
16305;DHT22;8261;47.678;-122.174;2023-06-05T08:27:51;10.50;99.90
16305;DHT22;8261;47.678;-122.174;2023-06-05T08:30:22;10.50;99.90
16305;DHT22;8261;47.678;-122.174;2023-06-05T08:32:55;10.50;99.90
16305;DHT22;8261;47.678;-122.174;2023-06-05T08:35:27;10.50;99.90
16305;DHT22;8261;47.678;-122.174;2023-06-05T08:38:02;10.50;99.90
16305;DHT22;8261;47.678;-122.174;2023-06-05T08:40:35;10.40;99.90
16305;DHT22;8261;47.678;-122.174;2023-06-05T08:43:08;10.40;99.90
16305;DHT22;8261;47.678;-122.174;2023-06-05T08:45:43;10.30;99.90
16305;DHT22;8261;47.678;-122.174;2023-06-05T08:48:17;10.30;99.90
16305;DHT22;8261;47.678;-122.174;2023-06-05T08:50:50;10.20;99.90
16305;DHT22;8261;47.678;-122.174;2023-06-05T08:53:31;10.20;99.90
16305;DHT22;8261;47.678;-122.174;2023-06-05T08:56:06;10.20;99.90
16305;DHT22;8261;47.678;-122.174;2023-06-05T08:58:39;10.10;99.90
16305;DHT22;8261;47.678;-122.174;2023-06-05T09:01:13;10.20;99.90
16305;DHT22;8261;47.678;-122.174;2023-06-05T09:03:45;10.20;99.90
16305;DHT22;8261;47.678;-122.174;2023-06-05T09:06:19;10.20;99.90
16305;DHT22;8261;47.678;-122.174;2023-06-05T09:08:56;10.10;99.90
16305;DHT22;8261;47.678;-122.174;2023-06-05T09:11:32;10.10;99.90
16305;DHT22;8261;47.678;-122.174;2023-06-05T09:14:05;10.20;99.90
16305;DHT22;8261;47.678;-122.174;2023-06-05T09:16:38;10.20;99.90
16305;DHT22;8261;47.678;-122.174;2023-06-05T09:19:13;10.20;99.90
16305;DHT22;8261;47.678;-122.174;2023-06-05T09:21:52;10.10;99.90
16305;DHT22;8261;47.678;-122.174;2023-06-05T09:24:26;9.90;99.90
16305;DHT22;8261;47.678;-122.174;2023-06-05T09:27:01;9.90;99.90
16305;DHT22;8261;47.678;-122.174;2023-06-05T09:29:38;9.80;99.90
16305;DHT22;8261;47.678;-122.174;2023-06-05T09:32:18;9.80;99.90
16305;DHT22;8261;47.678;-122.174;2023-06-05T09:34:55;9.90;99.90
16305;DHT22;8261;47.678;-122.174;2023-06-05T09:37:34;9.80;99.90
16305;DHT22;8261;47.678;-122.174;2023-06-05T09:40:09;9.80;99.90
16305;DHT22;8261;47.678;-122.174;2023-06-05T09:42:44;9.70;99.90
16305;DHT22;8261;47.678;-122.174;2023-06-05T09:45:16;9.70;99.90
16305;DHT22;8261;47.678;-122.174;2023-06-05T09:47:50;9.70;99.90
16305;DHT22;8261;47.678;-122.174;2023-06-05T09:50:23;9.70;99.90
16305;DHT22;8261;47.678;-122.174;2023-06-05T09:52:57;9.80;99.90
16305;DHT22;8261;47.678;-122.174;2023-06-05T09:55:33;9.80;99.90
16305;DHT22;8261;47.678;-122.174;2023-06-05T09:58:05;9.80;99.90
16305;DHT22;8261;47.678;-122.174;2023-06-05T10:00:43;9.70;99.90
16305;DHT22;8261;47.678;-122.174;2023-06-05T10:03:19;9.80;99.90
16305;DHT22;8261;47.678;-122.174;2023-06-05T10:05:52;9.80;99.90
16305;DHT22;8261;47.678;-122.174;2023-06-05T10:08:29;9.80;99.90
16305;DHT22;8261;47.678;-122.174;2023-06-05T10:11:06;9.80;99.90
16305;DHT22;8261;47.678;-122.174;2023-06-05T10:13:40;9.80;99.90
16305;DHT22;8261;47.678;-122.174;2023-06-05T10:16:12;9.80;99.90
16305;DHT22;8261;47.678;-122.174;2023-06-05T10:18:58;9.70;99.90
16305;DHT22;8261;47.678;-122.174;2023-06-05T10:21:34;9.70;99.90
16305;DHT22;8261;47.678;-122.174;2023-06-05T10:24:10;9.70;99.90
16305;DHT22;8261;47.678;-122.174;2023-06-05T10:27:15;9.70;99.90
16305;DHT22;8261;47.678;-122.174;2023-06-05T10:30:09;9.60;99.90
16305;DHT22;8261;47.678;-122.174;2023-06-05T10:32:58;9.60;99.90
16305;DHT22;8261;47.678;-122.174;2023-06-05T10:35:46;9.60;99.90
16305;DHT22;8261;47.678;-122.174;2023-06-05T10:38:22;9.60;99.90
16305;DHT22;8261;47.678;-122.174;2023-06-05T10:40:56;9.50;99.90
16305;DHT22;8261;47.678;-122.174;2023-06-05T10:43:36;9.40;99.90
16305;DHT22;8261;47.678;-122.174;2023-06-05T10:46:31;9.40;99.90
16305;DHT22;8261;47.678;-122.174;2023-06-05T10:49:13;9.40;99.90
16305;DHT22;8261;47.678;-122.174;2023-06-05T10:51:49;9.30;99.90
16305;DHT22;8261;47.678;-122.174;2023-06-05T10:54:53;9.30;99.90
16305;DHT22;8261;47.678;-122.174;2023-06-05T10:57:25;9.20;99.90
16305;DHT22;8261;47.678;-122.174;2023-06-05T11:00:08;9.20;99.90
16305;DHT22;8261;47.678;-122.174;2023-06-05T11:02:47;9.10;99.90
16305;DHT22;8261;47.678;-122.174;2023-06-05T11:05:21;9.00;99.90
16305;DHT22;8261;47.678;-122.174;2023-06-05T11:08:14;9.00;99.90
16305;DHT22;8261;47.678;-122.174;2023-06-05T11:11:06;9.00;99.90
16305;DHT22;8261;47.678;-122.174;2023-06-05T11:13:54;8.90;99.90
16305;DHT22;8261;47.678;-122.174;2023-06-05T11:16:29;8.80;99.90
16305;DHT22;8261;47.678;-122.174;2023-06-05T11:19:35;8.80;99.90
16305;DHT22;8261;47.678;-122.174;2023-06-05T11:22:08;8.80;99.90
16305;DHT22;8261;47.678;-122.174;2023-06-05T11:24:43;8.80;99.90
16305;DHT22;8261;47.678;-122.174;2023-06-05T11:30:21;8.80;99.90
16305;DHT22;8261;47.678;-122.174;2023-06-05T11:33:15;8.80;99.90
16305;DHT22;8261;47.678;-122.174;2023-06-05T11:35:50;8.70;99.90
16305;DHT22;8261;47.678;-122.174;2023-06-05T11:38:22;8.80;99.90
16305;DHT22;8261;47.678;-122.174;2023-06-05T11:40:55;8.70;99.90
16305;DHT22;8261;47.678;-122.174;2023-06-05T11:43:27;8.70;99.90
16305;DHT22;8261;47.678;-122.174;2023-06-05T11:46:00;8.70;99.90
16305;DHT22;8261;47.678;-122.174;2023-06-05T11:48:35;8.70;99.90
16305;DHT22;8261;47.678;-122.174;2023-06-05T11:51:13;8.60;99.90
16305;DHT22;8261;47.678;-122.174;2023-06-05T11:53:48;8.60;99.90
16305;DHT22;8261;47.678;-122.174;2023-06-05T11:56:19;8.60;99.90
16305;DHT22;8261;47.678;-122.174;2023-06-05T11:58:52;8.60;99.90
16305;DHT22;8261;47.678;-122.174;2023-06-05T12:01:23;8.60;99.90
16305;DHT22;8261;47.678;-122.174;2023-06-05T12:04:06;8.60;99.90
16305;DHT22;8261;47.678;-122.174;2023-06-05T12:06:42;8.60;99.90
16305;DHT22;8261;47.678;-122.174;2023-06-05T12:09:15;8.50;99.90
16305;DHT22;8261;47.678;-122.174;2023-06-05T12:11:50;8.50;99.90
16305;DHT22;8261;47.678;-122.174;2023-06-05T12:14:33;8.60;99.90
16305;DHT22;8261;47.678;-122.174;2023-06-05T12:17:12;8.60;99.90
16305;DHT22;8261;47.678;-122.174;2023-06-05T12:19:53;8.60;99.90
16305;DHT22;8261;47.678;-122.174;2023-06-05T12:22:25;8.60;99.90
16305;DHT22;8261;47.678;-122.174;2023-06-05T12:24:56;8.60;99.90
16305;DHT22;8261;47.678;-122.174;2023-06-05T12:27:48;8.60;99.90
16305;DHT22;8261;47.678;-122.174;2023-06-05T12:30:22;8.70;99.90
16305;DHT22;8261;47.678;-122.174;2023-06-05T12:33:04;8.70;99.90
16305;DHT22;8261;47.678;-122.174;2023-06-05T12:35:40;8.70;99.90
16305;DHT22;8261;47.678;-122.174;2023-06-05T12:38:11;8.70;99.90
16305;DHT22;8261;47.678;-122.174;2023-06-05T12:40:44;8.80;99.90
16305;DHT22;8261;47.678;-122.174;2023-06-05T12:43:31;8.70;99.90
16305;DHT22;8261;47.678;-122.174;2023-06-05T12:46:04;8.70;99.90
16305;DHT22;8261;47.678;-122.174;2023-06-05T12:48:38;8.70;99.90
16305;DHT22;8261;47.678;-122.174;2023-06-05T12:51:12;8.70;99.90
16305;DHT22;8261;47.678;-122.174;2023-06-05T12:53:45;8.80;99.90
16305;DHT22;8261;47.678;-122.174;2023-06-05T12:56:16;8.80;99.90
16305;DHT22;8261;47.678;-122.174;2023-06-05T12:58:53;8.80;99.90
16305;DHT22;8261;47.678;-122.174;2023-06-05T13:01:26;8.80;99.90
16305;DHT22;8261;47.678;-122.174;2023-06-05T13:03:59;8.80;99.90
16305;DHT22;8261;47.678;-122.174;2023-06-05T13:06:35;8.90;99.90
16305;DHT22;8261;47.678;-122.174;2023-06-05T13:09:07;8.90;99.90
16305;DHT22;8261;47.678;-122.174;2023-06-05T13:11:38;8.90;99.90
16305;DHT22;8261;47.678;-122.174;2023-06-05T13:14:10;8.90;99.90
16305;DHT22;8261;47.678;-122.174;2023-06-05T13:16:44;8.90;99.90
16305;DHT22;8261;47.678;-122.174;2023-06-05T13:19:18;8.90;99.90
16305;DHT22;8261;47.678;-122.174;2023-06-05T13:21:53;9.00;99.90
16305;DHT22;8261;47.678;-122.174;2023-06-05T13:24:25;9.00;99.90
16305;DHT22;8261;47.678;-122.174;2023-06-05T13:26:57;9.10;99.90
16305;DHT22;8261;47.678;-122.174;2023-06-05T13:29:29;9.20;99.90
16305;DHT22;8261;47.678;-122.174;2023-06-05T13:32:01;9.20;99.90
16305;DHT22;8261;47.678;-122.174;2023-06-05T13:34:36;9.20;99.90
16305;DHT22;8261;47.678;-122.174;2023-06-05T13:37:12;9.40;99.90
16305;DHT22;8261;47.678;-122.174;2023-06-05T13:39:49;9.50;99.90
16305;DHT22;8261;47.678;-122.174;2023-06-05T13:42:22;9.50;99.90
16305;DHT22;8261;47.678;-122.174;2023-06-05T13:44:55;9.60;99.90
16305;DHT22;8261;47.678;-122.174;2023-06-05T13:47:27;9.70;99.90
16305;DHT22;8261;47.678;-122.174;2023-06-05T13:49:59;9.80;99.90
16305;DHT22;8261;47.678;-122.174;2023-06-05T13:52:36;10.00;99.90
16305;DHT22;8261;47.678;-122.174;2023-06-05T13:55:11;10.00;99.90
16305;DHT22;8261;47.678;-122.174;2023-06-05T13:57:45;10.20;99.90
16305;DHT22;8261;47.678;-122.174;2023-06-05T14:00:17;10.20;99.90
16305;DHT22;8261;47.678;-122.174;2023-06-05T14:02:50;10.30;99.90
16305;DHT22;8261;47.678;-122.174;2023-06-05T14:05:22;10.40;99.90
16305;DHT22;8261;47.678;-122.174;2023-06-05T14:07:56;10.40;99.90
16305;DHT22;8261;47.678;-122.174;2023-06-05T14:10:30;10.40;99.90
16305;DHT22;8261;47.678;-122.174;2023-06-05T14:13:05;10.50;99.90
16305;DHT22;8261;47.678;-122.174;2023-06-05T14:15:37;10.50;99.90
16305;DHT22;8261;47.678;-122.174;2023-06-05T14:18:09;10.50;99.90
16305;DHT22;8261;47.678;-122.174;2023-06-05T14:20:43;10.50;99.90
16305;DHT22;8261;47.678;-122.174;2023-06-05T14:23:18;10.60;99.90
16305;DHT22;8261;47.678;-122.174;2023-06-05T14:25:53;10.60;99.90
16305;DHT22;8261;47.678;-122.174;2023-06-05T14:28:25;10.60;99.90
16305;DHT22;8261;47.678;-122.174;2023-06-05T14:30:57;10.60;99.90
16305;DHT22;8261;47.678;-122.174;2023-06-05T14:33:29;10.70;99.90
16305;DHT22;8261;47.678;-122.174;2023-06-05T14:36:01;10.80;99.90
16305;DHT22;8261;47.678;-122.174;2023-06-05T14:38:45;10.90;99.90
16305;DHT22;8261;47.678;-122.174;2023-06-05T14:41:24;11.00;99.90
16305;DHT22;8261;47.678;-122.174;2023-06-05T14:43:57;11.40;99.90
16305;DHT22;8261;47.678;-122.174;2023-06-05T14:46:49;12.00;99.90
16305;DHT22;8261;47.678;-122.174;2023-06-05T14:49:21;12.90;99.90
16305;DHT22;8261;47.678;-122.174;2023-06-05T14:51:53;13.50;99.90
16305;DHT22;8261;47.678;-122.174;2023-06-05T14:54:26;13.80;99.90
16305;DHT22;8261;47.678;-122.174;2023-06-05T14:56:57;14.20;99.90
16305;DHT22;8261;47.678;-122.174;2023-06-05T14:59:30;14.60;99.90
16305;DHT22;8261;47.678;-122.174;2023-06-05T15:02:02;14.90;99.90
16305;DHT22;8261;47.678;-122.174;2023-06-05T15:04:35;15.20;99.90
16305;DHT22;8261;47.678;-122.174;2023-06-05T15:07:07;15.30;99.90
16305;DHT22;8261;47.678;-122.174;2023-06-05T15:09:41;15.50;99.90
16305;DHT22;8261;47.678;-122.174;2023-06-05T15:12:13;15.60;99.90
16305;DHT22;8261;47.678;-122.174;2023-06-05T15:14:45;15.50;99.90
16305;DHT22;8261;47.678;-122.174;2023-06-05T15:17:17;15.70;99.90
16305;DHT22;8261;47.678;-122.174;2023-06-05T15:19:50;16.20;99.90
16305;DHT22;8261;47.678;-122.174;2023-06-05T15:22:23;16.10;99.90
16305;DHT22;8261;47.678;-122.174;2023-06-05T15:24:58;16.10;99.90
16305;DHT22;8261;47.678;-122.174;2023-06-05T15:27:32;16.40;99.90
16305;DHT22;8261;47.678;-122.174;2023-06-05T15:30:06;16.30;99.90
16305;DHT22;8261;47.678;-122.174;2023-06-05T15:32:38;16.10;99.90
16305;DHT22;8261;47.678;-122.174;2023-06-05T15:35:24;15.50;99.90
16305;DHT22;8261;47.678;-122.174;2023-06-05T15:38:09;15.20;99.90
16305;DHT22;8261;47.678;-122.174;2023-06-05T15:40:49;14.90;99.90
16305;DHT22;8261;47.678;-122.174;2023-06-05T15:43:34;14.90;99.90
16305;DHT22;8261;47.678;-122.174;2023-06-05T15:46:24;15.00;99.90
16305;DHT22;8261;47.678;-122.174;2023-06-05T15:49:01;15.00;99.90
16305;DHT22;8261;47.678;-122.174;2023-06-05T15:51:33;14.90;99.90
16305;DHT22;8261;47.678;-122.174;2023-06-05T15:54:05;14.90;99.90
16305;DHT22;8261;47.678;-122.174;2023-06-05T15:57:06;14.90;99.90
16305;DHT22;8261;47.678;-122.174;2023-06-05T15:59:37;14.80;99.90
16305;DHT22;8261;47.678;-122.174;2023-06-05T16:02:10;14.80;99.90